Time,TemperatureF,DewpointF,PressureIn,WindDirection,WindDirectionDegrees,WindSpeedMPH,WindSpeedGustMPH,Humidity,HourlyPrecipIn,Conditions,Clouds,dailyrainin,SolarRadiationWatts/m^2,SoftwareType,DateUTC
2013-01-02 00:07:00,48.7,48.0,29.98,SW,227,0.0,0.0,97,0.03,,,0.00,0,weatherlink.com 1.10,2013-01-02 05:07:00,
2013-01-02 00:22:00,48.7,48.0,29.96,SW,227,0.0,0.0,97,0.04,,,0.02,0,weatherlink.com 1.10,2013-01-02 05:22:00,
2013-01-02 00:37:00,48.9,48.0,29.96,SW,227,0.0,0.0,97,0.03,,,0.02,0,weatherlink.com 1.10,2013-01-02 05:37:00,
2013-01-02 00:52:00,48.7,48.0,29.94,SW,227,0.0,0.0,97,0.03,,,0.03,0,weatherlink.com 1.10,2013-01-02 05:52:00,
2013-01-02 01:07:00,48.5,48.0,29.95,SW,227,0.0,0.0,97,0.04,,,0.04,0,weatherlink.com 1.10,2013-01-02 06:07:00,
2013-01-02 01:22:00,48.8,48.0,29.93,SW,227,0.0,0.0,97,0.03,,,0.05,0,weatherlink.com 1.10,2013-01-02 06:22:00,
2013-01-02 01:37:00,49.0,48.0,29.94,SW,227,0.0,0.0,97,0.04,,,0.06,0,weatherlink.com 1.10,2013-01-02 06:37:00,
2013-01-02 01:52:00,48.8,48.0,29.96,SW,227,0.0,0.0,97,0.03,,,0.06,0,weatherlink.com 1.10,2013-01-02 06:52:00,
2013-01-02 02:07:00,49.0,48.0,29.95,SW,227,0.0,0.0,97,0.03,,,0.07,0,weatherlink.com 1.10,2013-01-02 07:07:00,
2013-01-02 02:22:00,49.0,48.0,29.95,SW,227,0.0,0.0,97,0.03,,,0.08,0,weatherlink.com 1.10,2013-01-02 07:22:00,
2013-01-02 02:37:00,49.0,48.0,29.96,East,90,0.0,3.0,97,0.04,,,0.10,0,weatherlink.com 1.10,2013-01-02 07:37:00,
2013-01-02 02:53:00,48.8,48.0,29.96,East,90,1.0,1.0,97,0.06,,,0.12,0,weatherlink.com 1.10,2013-01-02 07:53:00,
2013-01-02 03:08:00,49.0,48.0,29.96,NE,40,0.0,2.0,97,0.08,,,0.15,0,weatherlink.com 1.10,2013-01-02 08:08:00,
2013-01-02 03:23:00,49.0,48.0,29.96,NNE,32,0.0,2.0,97,0.09,,,0.17,0,weatherlink.com 1.10,2013-01-02 08:23:00,
2013-01-02 03:38:00,48.8,48.0,29.96,North,5,0.0,4.0,97,0.08,,,0.18,0,weatherlink.com 1.10,2013-01-02 08:38:00,
2013-01-02 03:53:00,48.5,48.0,29.96,ENE,61,2.0,4.0,97,0.07,,,0.19,0,weatherlink.com 1.10,2013-01-02 08:53:00,
2013-01-02 04:08:00,48.1,47.0,29.95,ENE,74,2.0,2.0,97,0.05,,,0.20,0,weatherlink.com 1.10,2013-01-02 09:08:00,
2013-01-02 04:23:00,47.7,47.0,29.96,ENE,69,1.0,2.0,97,0.04,,,0.21,0,weatherlink.com 1.10,2013-01-02 09:23:00,
2013-01-02 04:38:00,47.4,47.0,29.95,West,277,2.0,5.0,97,0.03,,,0.21,0,weatherlink.com 1.10,2013-01-02 09:38:00,
2013-01-02 04:53:00,47.3,47.0,29.96,NNE,21,1.0,4.0,97,0.01,,,0.21,0,weatherlink.com 1.10,2013-01-02 09:53:00,
2013-01-02 05:08:00,46.9,46.0,29.96,North,5,1.0,9.0,97,0.02,,,0.22,0,weatherlink.com 1.10,2013-01-02 10:08:00,
2013-01-02 05:23:00,46.3,46.0,29.98,NNE,22,0.0,5.0,97,0.01,,,0.22,0,weatherlink.com 1.10,2013-01-02 10:23:00,
2013-01-02 05:38:00,45.8,45.0,29.98,NNE,13,0.0,5.0,97,0.01,,,0.22,0,weatherlink.com 1.10,2013-01-02 10:38:00,
2013-01-02 05:53:00,45.5,45.0,30.00,NNE,23,0.0,5.0,96,0.03,,,0.24,0,weatherlink.com 1.10,2013-01-02 10:53:00,
2013-01-02 06:08:00,45.0,44.0,30.01,North,5,5.0,7.0,96,0.03,,,0.25,0,weatherlink.com 1.10,2013-01-02 11:08:00,
2013-01-02 06:23:00,44.6,44.0,30.02,North,355,1.0,3.0,96,0.03,,,0.25,0,weatherlink.com 1.10,2013-01-02 11:23:00,
2013-01-02 06:38:00,44.4,43.0,30.02,NNE,21,1.0,2.0,96,0.03,,,0.25,0,weatherlink.com 1.10,2013-01-02 11:38:00,
2013-01-02 06:53:00,44.3,43.0,30.03,NNE,21,0.0,3.0,96,0.01,,,0.25,0,weatherlink.com 1.10,2013-01-02 11:53:00,
2013-01-02 07:08:00,44.2,43.0,30.03,WNW,298,0.0,6.0,96,0.00,,,0.25,0,weatherlink.com 1.10,2013-01-02 12:08:00,
2013-01-02 07:23:00,44.1,43.0,30.04,NNE,30,0.0,1.0,97,0.00,,,0.25,0,weatherlink.com 1.10,2013-01-02 12:23:00,
2013-01-02 07:38:00,44.1,43.0,30.04,NE,54,0.0,1.0,97,0.00,,,0.25,5,weatherlink.com 1.10,2013-01-02 12:38:00,
2013-01-02 07:53:00,44.0,43.0,30.04,NE,54,0.0,1.0,96,0.01,,,0.26,11,weatherlink.com 1.10,2013-01-02 12:53:00,
2013-01-02 08:08:00,44.0,43.0,30.03,ESE,108,0.0,3.0,96,0.01,,,0.26,25,weatherlink.com 1.10,2013-01-02 13:08:00,
2013-01-02 08:23:00,44.1,43.0,30.04,ESE,108,0.0,0.0,97,0.01,,,0.26,47,weatherlink.com 1.10,2013-01-02 13:23:00,
2013-01-02 08:38:00,44.5,44.0,30.03,East,80,0.0,3.0,97,0.01,,,0.26,49,weatherlink.com 1.10,2013-01-02 13:38:00,
2013-01-02 08:53:00,44.9,44.0,30.05,NNW,336,0.0,2.0,97,0.00,,,0.26,39,weatherlink.com 1.10,2013-01-02 13:53:00,
2013-01-02 09:08:00,44.9,44.0,30.07,West,276,0.0,2.0,97,0.00,,,0.26,32,weatherlink.com 1.10,2013-01-02 14:08:00,
2013-01-02 09:23:00,45.0,44.0,30.08,North,355,1.0,3.0,96,0.00,,,0.26,47,weatherlink.com 1.10,2013-01-02 14:23:00,
2013-01-02 09:38:00,45.0,44.0,30.09,WNW,292,0.0,1.0,96,0.00,,,0.26,25,weatherlink.com 1.10,2013-01-02 14:38:00,
2013-01-02 10:08:00,45.1,44.0,30.10,West,268,0.0,3.0,95,0.00,,,0.26,69,weatherlink.com 1.10,2013-01-02 15:08:00,
2013-01-02 10:23:00,45.4,44.0,30.11,NW,307,1.0,3.0,94,0.00,,,0.26,149,weatherlink.com 1.10,2013-01-02 15:23:00,
2013-01-02 10:38:00,45.8,44.0,30.12,WNW,298,0.0,5.0,93,0.00,,,0.26,116,weatherlink.com 1.10,2013-01-02 15:38:00,
2013-01-02 10:53:00,46.0,43.0,30.11,NNW,327,1.0,7.0,89,0.00,,,0.26,185,weatherlink.com 1.10,2013-01-02 15:53:00,
2013-01-02 11:09:00,45.8,43.0,30.10,NW,307,2.0,4.0,88,0.00,,,0.26,214,weatherlink.com 1.10,2013-01-02 16:09:00,
2013-01-02 11:24:00,46.1,43.0,30.10,NNE,19,0.0,5.0,88,0.00,,,0.26,192,weatherlink.com 1.10,2013-01-02 16:24:00,
2013-01-02 11:39:00,46.1,42.0,30.11,NNW,337,3.0,7.0,85,0.00,,,0.26,142,weatherlink.com 1.10,2013-01-02 16:39:00,
2013-01-02 11:54:00,46.2,41.0,30.09,West,268,1.0,5.0,83,0.00,,,0.26,185,weatherlink.com 1.10,2013-01-02 16:54:00,
2013-01-02 12:09:00,46.6,42.0,30.09,NNE,27,0.0,5.0,85,0.00,,,0.26,158,weatherlink.com 1.10,2013-01-02 17:09:00,
2013-01-02 12:24:00,46.7,42.0,30.10,NNW,341,0.0,6.0,84,0.00,,,0.26,209,weatherlink.com 1.10,2013-01-02 17:24:00,
2013-01-02 12:39:00,47.1,42.0,30.09,NW,326,0.0,6.0,83,0.00,,,0.26,130,weatherlink.com 1.10,2013-01-02 17:39:00,
2013-01-02 12:54:00,46.8,42.0,30.07,NNW,346,1.0,8.0,83,0.00,,,0.26,248,weatherlink.com 1.10,2013-01-02 17:54:00,
2013-01-02 13:09:00,46.9,41.0,30.06,NE,34,8.0,8.0,80,0.00,,,0.26,206,weatherlink.com 1.10,2013-01-02 18:09:00,
2013-01-02 13:24:00,46.6,40.0,30.08,SE,138,0.0,8.0,79,0.00,,,0.26,253,weatherlink.com 1.10,2013-01-02 18:24:00,
2013-01-02 13:39:00,46.7,40.0,30.09,NE,40,0.0,8.0,78,0.00,,,0.26,264,weatherlink.com 1.10,2013-01-02 18:39:00,
2013-01-02 13:54:00,46.8,40.0,30.08,ENE,78,4.0,7.0,78,0.00,,,0.26,197,weatherlink.com 1.10,2013-01-02 18:54:00,
2013-01-02 14:09:00,46.6,40.0,30.08,NE,44,0.0,5.0,77,0.00,,,0.26,179,weatherlink.com 1.10,2013-01-02 19:09:00,
2013-01-02 14:24:00,46.6,40.0,30.08,ENE,57,7.0,8.0,77,0.00,,,0.26,200,weatherlink.com 1.10,2013-01-02 19:24:00,
2013-01-02 14:39:00,46.6,40.0,30.08,WNW,298,2.0,3.0,77,0.00,,,0.26,329,weatherlink.com 1.10,2013-01-02 19:39:00,
2013-01-02 14:54:00,46.9,40.0,30.09,NE,45,0.0,6.0,76,0.00,,,0.26,144,weatherlink.com 1.10,2013-01-02 19:54:00,
2013-01-02 15:09:00,46.3,40.0,30.10,NE,41,0.0,6.0,79,0.00,,,0.26,65,weatherlink.com 1.10,2013-01-02 20:09:00,
2013-01-02 15:24:00,45.9,39.0,30.10,East,87,3.0,7.0,78,0.00,,,0.26,56,weatherlink.com 1.10,2013-01-02 20:24:00,
2013-01-02 15:39:00,45.7,40.0,30.11,NE,52,0.0,5.0,79,0.00,,,0.26,76,weatherlink.com 1.10,2013-01-02 20:39:00,
2013-01-02 15:54:00,45.8,40.0,30.12,ENE,60,3.0,5.0,79,0.00,,,0.26,58,weatherlink.com 1.10,2013-01-02 20:54:00,
2013-01-02 16:09:00,45.6,39.0,30.12,ENE,60,2.0,5.0,79,0.00,,,0.26,49,weatherlink.com 1.10,2013-01-02 21:09:00,
2013-01-02 16:24:00,45.0,40.0,30.12,East,80,0.0,4.0,81,0.00,,,0.26,44,weatherlink.com 1.10,2013-01-02 21:24:00,
2013-01-02 16:39:00,44.8,39.0,30.12,NE,55,4.0,5.0,81,0.00,,,0.26,26,weatherlink.com 1.10,2013-01-02 21:39:00,
2013-01-02 16:54:00,44.5,39.0,30.13,NE,42,2.0,5.0,81,0.00,,,0.26,7,weatherlink.com 1.10,2013-01-02 21:54:00,
2013-01-02 17:09:00,44.2,39.0,30.13,ENE,75,0.0,4.0,82,0.00,,,0.26,0,weatherlink.com 1.10,2013-01-02 22:09:00,
2013-01-02 17:24:00,43.8,39.0,30.15,NE,55,2.0,4.0,82,0.00,,,0.26,0,weatherlink.com 1.10,2013-01-02 22:24:00,
2013-01-02 17:39:00,43.5,38.0,30.14,ENE,57,0.0,5.0,82,0.00,,,0.26,0,weatherlink.com 1.10,2013-01-02 22:39:00,
2013-01-02 17:55:00,43.1,39.0,30.14,NE,56,1.0,2.0,84,0.00,,,0.26,0,weatherlink.com 1.10,2013-01-02 22:55:00,
2013-01-02 18:09:00,42.9,38.0,30.15,East,101,0.0,2.0,84,0.00,,,0.26,0,weatherlink.com 1.10,2013-01-02 23:09:00,
2013-01-02 18:24:00,42.7,38.0,30.16,ENE,71,0.0,2.0,84,0.00,,,0.26,0,weatherlink.com 1.10,2013-01-02 23:24:00,
2013-01-02 18:39:00,42.5,38.0,30.16,ENE,71,0.0,0.0,85,0.00,,,0.26,0,weatherlink.com 1.10,2013-01-02 23:39:00,
2013-01-02 18:54:00,42.2,38.0,30.17,ENE,71,0.0,1.0,86,0.00,,,0.26,0,weatherlink.com 1.10,2013-01-02 23:54:00,
2013-01-02 19:09:00,42.0,38.0,30.16,East,88,0.0,1.0,87,0.00,,,0.26,0,weatherlink.com 1.10,2013-01-03 00:09:00,
2013-01-02 19:24:00,41.7,38.0,30.18,East,88,0.0,0.0,87,0.00,,,0.26,0,weatherlink.com 1.10,2013-01-03 00:24:00,
2013-01-02 19:39:00,41.4,38.0,30.18,East,88,0.0,0.0,89,0.00,,,0.26,0,weatherlink.com 1.10,2013-01-03 00:39:00,
2013-01-02 19:54:00,41.2,38.0,30.19,East,88,0.0,0.0,89,0.00,,,0.26,0,weatherlink.com 1.10,2013-01-03 00:54:00,
2013-01-02 20:09:00,40.8,38.0,30.17,East,88,0.0,0.0,91,0.00,,,0.26,0,weatherlink.com 1.10,2013-01-03 01:09:00,
2013-01-02 20:24:00,40.6,39.0,30.17,East,88,0.0,0.0,92,0.00,,,0.26,0,weatherlink.com 1.10,2013-01-03 01:24:00,
2013-01-02 20:39:00,40.5,38.0,30.18,East,88,0.0,0.0,92,0.00,,,0.26,0,weatherlink.com 1.10,2013-01-03 01:39:00,
2013-01-02 20:54:00,40.4,38.0,30.18,East,88,0.0,0.0,92,0.00,,,0.26,0,weatherlink.com 1.10,2013-01-03 01:54:00,
2013-01-02 21:09:00,40.4,38.0,30.19,East,88,0.0,0.0,92,0.00,,,0.26,0,weatherlink.com 1.10,2013-01-03 02:09:00,
2013-01-02 21:24:00,40.5,38.0,30.19,East,88,0.0,0.0,92,0.00,,,0.26,0,weatherlink.com 1.10,2013-01-03 02:24:00,
2013-01-02 21:39:00,40.5,38.0,30.19,ENE,65,0.0,2.0,92,0.00,,,0.26,0,weatherlink.com 1.10,2013-01-03 02:39:00,
2013-01-02 21:54:00,40.5,38.0,30.18,NE,44,1.0,2.0,92,0.00,,,0.26,0,weatherlink.com 1.10,2013-01-03 02:54:00,
2013-01-02 22:09:00,40.6,38.0,30.19,ESE,121,0.0,3.0,91,0.00,,,0.26,0,weatherlink.com 1.10,2013-01-03 03:09:00,
2013-01-02 22:24:00,40.8,38.0,30.18,ESE,118,0.0,2.0,91,0.00,,,0.26,0,weatherlink.com 1.10,2013-01-03 03:24:00,
2013-01-02 22:39:00,40.8,38.0,30.21,SE,136,1.0,2.0,91,0.00,,,0.26,0,weatherlink.com 1.10,2013-01-03 03:39:00,
2013-01-02 22:54:00,40.8,38.0,30.21,East,81,0.0,1.0,91,0.00,,,0.26,0,weatherlink.com 1.10,2013-01-03 03:54:00,
2013-01-02 23:09:00,40.8,38.0,30.21,East,81,0.0,0.0,91,0.00,,,0.26,0,weatherlink.com 1.10,2013-01-03 04:09:00,
2013-01-02 23:24:00,40.7,38.0,30.20,East,81,0.0,0.0,91,0.00,,,0.26,0,weatherlink.com 1.10,2013-01-03 04:24:00,
2013-01-02 23:39:00,40.7,38.0,30.20,East,81,0.0,0.0,91,0.00,,,0.26,0,weatherlink.com 1.10,2013-01-03 04:39:00,
2013-01-02 23:54:00,40.6,38.0,30.20,East,81,0.0,1.0,91,0.00,,,0.26,0,weatherlink.com 1.10,2013-01-03 04:54:00,